Time;durP1;ratioP1;P1;durP2;ratioP2;P2;SDS_P1;SDS_P2;PMS_P1;PMS_P2;Temp;Humidity;BMP_temperature;BMP_pressure;BME280_temperature;BME280_humidity;BME280_pressure;Samples;Min_cycle;Max_cycle;Signal;HPM_P1;HPM_P2
2022/08/31 00:05:26;;;;;;;19.65;11.55;;;;;;;23.62;54.78;99488.06;3144826;28;20044;-61
2022/08/31 00:06:58;;;;;;;17.40;9.93;;;;;;;23.60;54.35;99494.53;3139530;28;20047;-61
2022/08/31 00:08:32;;;;;;;18.48;11.32;;;;;;;23.60;54.22;99490.09;3144828;28;20052;-61
2022/08/31 00:10:12;;;;;;;;;;;;;;;23.57;54.62;99489.53;3145066;28;20045;-62
2022/08/31 00:11:44;;;;;;;16.38;9.88;;;;;;;23.58;54.29;99485.91;3144884;28;19932;-61
2022/08/31 00:13:16;;;;;;;21.27;10.90;;;;;;;23.56;54.69;99490.56;3144774;28;20470;-61
2022/08/31 00:14:47;;;;;;;23.15;10.50;;;;;;;23.53;54.76;99488.22;3144976;28;20133;-61
2022/08/31 00:16:19;;;;;;;17.73;11.98;;;;;;;23.51;54.57;99487.53;3144873;28;20579;-61
2022/08/31 00:17:52;;;;;;;15.60;10.32;;;;;;;23.51;54.49;99484.88;3144912;28;20469;-61
2022/08/31 00:19:24;;;;;;;18.60;11.38;;;;;;;23.50;54.32;99484.03;3144614;28;20048;-62
2022/08/31 00:20:57;;;;;;;17.27;11.52;;;;;;;23.49;54.67;99484.22;3142239;28;20586;-62
2022/08/31 00:22:28;;;;;;;20.35;11.77;;;;;;;23.47;54.50;99478.22;3144199;28;20094;-63
2022/08/31 00:24:00;;;;;;;22.27;11.13;;;;;;;23.44;54.69;99483.88;3144676;28;20071;-62
2022/08/31 00:25:33;;;;;;;21.27;10.80;;;;;;;23.42;54.34;99483.19;3144879;28;20055;-62
2022/08/31 00:27:05;;;;;;;19.15;10.55;;;;;;;23.41;54.59;99482.34;3146563;28;20111;-62
2022/08/31 00:28:37;;;;;;;19.75;11.00;;;;;;;23.37;54.67;99476.53;3147450;28;20480;-62
2022/08/31 00:30:11;;;;;;;18.42;11.02;;;;;;;23.38;54.61;99474.69;3147218;28;20048;-62
2022/08/31 00:31:43;;;;;;;23.25;11.25;;;;;;;23.37;54.42;99479.19;3151664;28;20126;-62
2022/08/31 00:33:14;;;;;;;21.20;11.63;;;;;;;23.33;54.76;99483.13;3144258;28;20052;-62
2022/08/31 00:34:46;;;;;;;22.60;11.48;;;;;;;23.33;54.85;99477.81;3146922;28;20109;-62
2022/08/31 00:36:22;;;;;;;21.88;12.07;;;;;;;23.31;54.89;99481.66;3147106;28;20052;-62
2022/08/31 00:37:54;;;;;;;18.25;11.68;;;;;;;23.29;55.16;99481.81;3150152;28;20428;-63
2022/08/31 00:39:25;;;;;;;19.15;11.23;;;;;;;23.27;55.17;99473.16;3150066;28;20450;-63
2022/08/31 00:40:57;;;;;;;25.45;12.18;;;;;;;23.25;55.04;99475.16;3147211;28;20059;-63
2022/08/31 00:42:29;;;;;;;16.20;10.90;;;;;;;23.24;55.47;99472.63;3146925;28;20052;-62
2022/08/31 00:44:03;;;;;;;16.83;11.52;;;;;;;23.18;55.27;99460.81;3146947;28;20060;-62
2022/08/31 00:45:35;;;;;;;21.30;11.18;;;;;;;23.23;55.42;99476.28;3140522;28;20047;-62
2022/08/31 00:47:07;;;;;;;21.02;11.52;;;;;;;23.23;55.33;99471.81;3147124;28;20060;-62
2022/08/31 00:48:44;;;;;;;21.58;12.15;;;;;;;23.25;55.13;99468.97;3146859;28;20044;-61
2022/08/31 00:50:17;;;;;;;22.20;11.65;;;;;;;23.27;54.95;99472.31;3146985;28;20064;-62
2022/08/31 00:51:52;;;;;;;;;;;;;;;23.23;55.34;99477.13;3147219;28;20071;-63
2022/08/31 00:53:25;;;;;;;20.27;11.50;;;;;;;23.23;55.13;99473.63;3146919;28;19920;-62
2022/08/31 00:55:00;;;;;;;16.42;10.65;;;;;;;23.23;55.24;99473.63;3144609;28;20049;-62
2022/08/31 00:56:33;;;;;;;17.73;12.43;;;;;;;23.17;55.04;99460.00;3146504;28;20048;-62
2022/08/31 00:58:10;;;;;;;17.90;11.55;;;;;;;23.26;55.43;99475.97;3146908;28;20056;-62
2022/08/31 00:59:44;;;;;;;22.30;11.27;;;;;;;23.23;55.68;99469.16;3147024;28;20045;-62
2022/08/31 01:01:18;;;;;;;20.85;11.63;;;;;;;23.25;55.11;99474.28;3146845;28;20071;-62
2022/08/31 01:02:49;;;;;;;23.60;12.45;;;;;;;23.24;55.37;99465.50;3140317;28;20084;-62
2022/08/31 01:04:21;;;;;;;18.88;12.20;;;;;;;23.25;55.34;99468.97;3146677;28;20070;-62
2022/08/31 01:05:52;;;;;;;17.48;11.10;;;;;;;23.23;55.33;99461.19;3146951;28;20442;-63
2022/08/31 01:07:26;;;;;;;16.42;10.90;;;;;;;23.23;55.39;99460.34;3146590;28;20059;-63
2022/08/31 01:08:59;;;;;;;17.75;10.32;;;;;;;23.22;55.57;99462.19;3146550;28;20048;-63
2022/08/31 01:10:32;;;;;;;;;;;;;;;23.16;55.50;99465.47;3147320;28;20055;-60
2022/08/31 01:12:06;;;;;;;18.35;11.20;;;;;;;23.13;55.61;99466.63;3146804;28;20343;-63
2022/08/31 01:13:38;;;;;;;18.75;10.45;;;;;;;23.12;55.56;99459.63;3146535;28;20051;-63
2022/08/31 01:15:11;;;;;;;18.88;11.52;;;;;;;23.14;55.85;99456.81;3141959;28;20048;-63
2022/08/31 01:16:48;;;;;;;18.00;11.45;;;;;;;23.15;55.38;99458.47;3146631;28;20509;-63
2022/08/31 01:18:22;;;;;;;21.65;11.38;;;;;;;23.11;55.57;99457.97;3146807;28;20060;-63
2022/08/31 01:20:04;;;;;;;16.80;10.85;;;;;;;23.19;55.35;99457.19;3146359;28;20044;-62
2022/08/31 01:21:42;;;;;;;17.85;11.23;;;;;;;23.21;55.27;99465.81;3146499;28;20511;-63
2022/08/31 01:23:18;;;;;;;17.58;10.63;;;;;;;23.22;55.25;99464.84;3146467;28;20067;-62
2022/08/31 01:24:51;;;;;;;15.20;10.35;;;;;;;23.26;55.14;99465.34;3146599;28;20440;-63
2022/08/31 01:26:26;;;;;;;23.05;11.32;;;;;;;23.26;54.78;99458.22;3146734;28;20132;-63
2022/08/31 01:27:58;;;;;;;21.88;11.27;;;;;;;23.29;54.96;99460.53;3147779;28;20508;-63
2022/08/31 01:29:32;;;;;;;15.63;10.43;;;;;;;23.32;54.87;99465.53;3146422;28;20063;-63
2022/08/31 01:31:08;;;;;;;17.92;10.52;;;;;;;23.31;55.25;99463.88;3146742;28;20433;-63
2022/08/31 01:32:40;;;;;;;15.07;10.25;;;;;;;23.30;55.00;99461.38;3146586;28;20404;-63
2022/08/31 01:34:12;;;;;;;20.10;10.55;;;;;;;23.28;54.93;99463.34;3146682;28;20048;-63
2022/08/31 01:35:44;;;;;;;13.63;10.32;;;;;;;23.27;55.41;99462.53;3146594;28;20063;-62
2022/08/31 01:37:16;;;;;;;16.10;11.38;;;;;;;23.26;55.27;99468.84;3145825;28;20425;-63
2022/08/31 01:38:48;;;;;;;15.77;10.60;;;;;;;23.25;55.37;99461.88;3146420;28;20135;-63
2022/08/31 01:40:20;;;;;;;17.83;11.35;;;;;;;23.21;55.56;99459.66;3146410;28;20131;-63
2022/08/31 01:41:52;;;;;;;20.33;10.35;;;;;;;23.18;55.54;99460.81;3146272;28;20053;-63
2022/08/31 01:43:24;;;;;;;16.98;10.00;;;;;;;23.09;55.35;99456.47;3146695;28;20053;-63
2022/08/31 01:44:56;;;;;;;18.40;10.93;;;;;;;23.10;56.01;99468.75;3146344;28;20049;-63
2022/08/31 01:46:27;;;;;;;21.58;12.00;;;;;;;23.04;56.05;99470.22;3146442;28;20055;-63
2022/08/31 01:47:59;;;;;;;16.52;10.55;;;;;;;23.05;55.81;99463.91;3146264;28;20048;-62
2022/08/31 01:49:31;;;;;;;17.38;10.65;;;;;;;23.04;56.15;99467.56;3146383;28;20064;-63
2022/08/31 01:51:04;;;;;;;16.67;11.07;;;;;;;23.03;56.06;99467.72;3145585;28;20055;-62
2022/08/31 01:52:37;;;;;;;15.63;11.03;;;;;;;23.04;56.12;99464.06;3146454;28;20052;-61
2022/08/31 01:54:10;;;;;;;14.70;10.82;;;;;;;23.05;56.30;99468.41;3146233;28;20315;-62
2022/08/31 01:55:42;;;;;;;16.30;10.57;;;;;;;23.06;56.20;99467.41;3146108;28;20459;-61
2022/08/31 01:57:14;;;;;;;13.43;10.38;;;;;;;23.07;56.05;99466.41;3145917;28;20056;-62
2022/08/31 01:58:46;;;;;;;18.15;10.63;;;;;;;23.07;55.98;99464.59;3146170;28;20405;-62
2022/08/31 02:00:18;;;;;;;14.82;10.98;;;;;;;23.06;55.98;99464.75;3146367;28;20109;-61
2022/08/31 02:01:52;;;;;;;21.88;11.63;;;;;;;23.07;55.86;99463.75;3146214;28;20045;-61
2022/08/31 02:03:23;;;;;;;21.75;11.32;;;;;;;23.06;55.78;99460.25;3145969;28;20060;-62
2022/08/31 02:04:55;;;;;;;17.00;10.90;;;;;;;23.05;55.64;99461.25;3145924;28;20060;-61
2022/08/31 02:06:27;;;;;;;20.90;10.38;;;;;;;23.06;56.20;99464.75;3146370;28;20051;-61
2022/08/31 02:07:58;;;;;;;17.65;11.13;;;;;;;23.05;56.05;99463.09;3145619;28;20433;-62
2022/08/31 02:09:32;;;;;;;14.05;10.57;;;;;;;23.05;55.97;99463.91;3146155;28;20425;-61
2022/08/31 02:11:03;;;;;;;15.02;10.80;;;;;;;23.06;55.80;99456.78;3145836;28;20386;-61
2022/08/31 02:12:34;;;;;;;22.83;11.48;;;;;;;23.07;55.88;99448.66;3146055;28;20056;-63
2022/08/31 02:14:08;;;;;;;15.93;11.05;;;;;;;23.07;56.10;99451.31;3145859;28;20501;-62
2022/08/31 02:15:39;;;;;;;;;;;;;;;23.05;55.96;99452.47;3146074;28;20536;-62
2022/08/31 02:17:10;;;;;;;15.75;10.05;;;;;;;23.00;55.94;99444.13;3145817;28;19921;-62
2022/08/31 02:18:42;;;;;;;18.27;11.23;;;;;;;22.93;56.42;99442.06;3146111;28;20037;-62
2022/08/31 02:20:15;;;;;;;15.32;10.55;;;;;;;22.93;56.32;99450.03;3145803;28;20445;-62
2022/08/31 02:21:47;;;;;;;18.37;11.00;;;;;;;22.89;56.58;99454.00;3145891;28;20103;-61
2022/08/31 02:23:18;;;;;;;14.20;10.48;;;;;;;22.89;56.72;99453.16;3145652;28;20319;-61
2022/08/31 02:24:51;;;;;;;15.85;10.15;;;;;;;22.86;56.56;99451.63;3145761;28;20053;-62
2022/08/31 02:26:23;;;;;;;19.27;10.95;;;;;;;22.86;56.50;99454.28;3145650;28;20594;-62
2022/08/31 02:27:55;;;;;;;16.85;10.68;;;;;;;22.89;56.47;99458.47;3145633;28;20085;-62
2022/08/31 02:29:26;;;;;;;18.40;11.40;;;;;;;22.89;56.60;99451.34;3145723;28;20052;-61
2022/08/31 02:30:58;;;;;;;21.48;10.30;;;;;;;22.88;56.52;99452.31;3145827;28;20514;-62
2022/08/31 02:32:29;;;;;;;23.35;10.70;;;;;;;22.87;56.45;99444.53;3145788;28;20052;-62
2022/08/31 02:34:01;;;;;;;18.25;10.73;;;;;;;22.87;56.72;99452.50;3145658;28;20053;-62
2022/08/31 02:35:34;;;;;;;16.90;10.73;;;;;;;22.86;56.55;99446.31;3145801;28;20055;-62
2022/08/31 02:37:05;;;;;;;13.50;10.57;;;;;;;22.82;56.69;99452.94;3145705;28;20311;-62
2022/08/31 02:38:39;;;;;;;16.05;10.55;;;;;;;22.82;56.73;99450.31;3145640;28;20055;-63
2022/08/31 02:40:12;;;;;;;19.35;11.20;;;;;;;22.81;56.51;99445.16;3145864;28;20048;-62
2022/08/31 02:41:43;;;;;;;;;;;;;;;22.78;56.70;99446.31;3145444;28;20476;-60
2022/08/31 02:43:14;;;;;;;20.10;10.90;;;;;;;22.75;56.79;99446.63;3145475;28;19930;-60
2022/08/31 02:44:46;;;;;;;14.85;9.63;;;;;;;22.74;56.67;99444.09;3145544;28;20044;-61
2022/08/31 02:46:18;;;;;;;17.08;10.35;;;;;;;22.75;56.89;99449.28;3145608;28;20065;-60
2022/08/31 02:47:50;;;;;;;13.98;10.35;;;;;;;22.71;56.97;99450.56;3145550;28;20067;-60
2022/08/31 02:49:22;;;;;;;19.45;11.32;;;;;;;22.71;56.69;99446.06;3144650;28;20055;-62
2022/08/31 02:50:54;;;;;;;21.75;10.15;;;;;;;22.66;57.24;99444.91;3145425;28;20048;-59
2022/08/31 02:52:25;;;;;;;20.45;9.73;;;;;;;22.61;57.21;99449.84;3145272;28;20426;-60
2022/08/31 02:53:57;;;;;;;24.38;11.43;;;;;;;22.60;57.28;99443.69;3145426;28;20059;-60
2022/08/31 02:55:30;;;;;;;19.75;10.27;;;;;;;22.61;57.25;99440.03;3145109;28;20064;-61
2022/08/31 02:57:02;;;;;;;;;;;;;;;22.57;57.00;99443.16;3142299;28;20237;-61
2022/08/31 02:58:35;;;;;;;15.30;9.98;;;;;;;22.55;57.39;99439.84;3145665;28;20391;-61
2022/08/31 03:00:08;;;;;;;18.25;10.90;;;;;;;22.52;57.37;99432.19;3145324;28;20044;-61
2022/08/31 03:01:41;;;;;;;18.08;10.85;;;;;;;22.46;57.79;99437.13;3144578;28;20053;-61
2022/08/31 03:03:13;;;;;;;17.92;10.57;;;;;;;22.45;57.46;99438.13;3145601;28;20052;-61
2022/08/31 03:04:44;;;;;;;19.42;10.77;;;;;;;22.44;58.04;99439.09;3145182;28;20437;-61
2022/08/31 03:06:18;;;;;;;18.85;10.68;;;;;;;22.39;57.74;99428.13;3145514;28;20049;-61
2022/08/31 03:07:51;;;;;;;20.30;11.25;;;;;;;22.44;57.75;99438.25;3145310;28;20048;-61
2022/08/31 03:09:23;;;;;;;15.07;10.52;;;;;;;22.44;57.65;99439.09;3138850;28;20155;-61
2022/08/31 03:10:56;;;;;;;21.13;10.60;;;;;;;22.40;57.75;99437.75;3145626;28;20048;-61
2022/08/31 03:12:28;;;;;;;;;;;;;;;22.38;57.97;99428.25;3145441;28;20105;-60
2022/08/31 03:14:00;;;;;;;22.13;10.88;;;;;;;22.37;58.14;99432.75;3145053;28;19920;-59
2022/08/31 03:15:32;;;;;;;22.98;10.75;;;;;;;22.39;57.78;99436.09;3145373;28;20059;-60
2022/08/31 03:17:04;;;;;;;20.27;11.43;;;;;;;22.39;57.69;99430.78;3145253;28;20049;-60
2022/08/31 03:18:36;;;;;;;17.75;11.48;;;;;;;22.42;57.76;99425.16;3144923;28;20048;-60
2022/08/31 03:20:09;;;;;;;24.00;10.18;;;;;;;22.42;57.96;99425.16;3146810;28;20044;-60
2022/08/31 03:21:40;;;;;;;;;;;;;;;22.41;57.65;99431.44;3145309;28;20052;-62
2022/08/31 03:23:11;;;;;;;16.77;9.93;;;;;;;22.42;57.66;99425.16;3145309;28;19920;-61
2022/08/31 03:24:43;;;;;;;20.05;10.77;;;;;;;22.42;57.64;99419.00;3145142;28;20060;-61
2022/08/31 03:26:17;;;;;;;23.35;11.32;;;;;;;22.42;57.70;99427.81;3145104;28;20723;-62
2022/08/31 03:27:48;;;;;;;18.35;11.25;;;;;;;22.43;57.57;99425.97;3141749;28;20040;-61
2022/08/31 03:29:20;;;;;;;18.73;11.20;;;;;;;22.42;57.38;99422.50;3145037;28;20059;-61
2022/08/31 03:30:52;;;;;;;17.38;10.52;;;;;;;22.43;57.63;99428.63;3144862;28;20044;-61
2022/08/31 03:32:26;;;;;;;20.83;11.18;;;;;;;22.44;57.30;99423.16;3145159;28;20536;-61
2022/08/31 03:33:58;;;;;;;19.38;10.60;;;;;;;22.45;57.46;99419.53;3145171;28;20048;-61
2022/08/31 03:35:30;;;;;;;15.10;10.32;;;;;;;22.45;57.16;99430.16;3145091;28;20048;-61
2022/08/31 03:37:02;;;;;;;16.45;11.02;;;;;;;22.45;57.79;99424.00;3142947;28;20505;-61
2022/08/31 03:38:33;;;;;;;15.50;10.50;;;;;;;22.42;57.65;99425.16;3145042;28;20052;-61
2022/08/31 03:40:07;;;;;;;17.48;11.10;;;;;;;22.42;57.53;99427.81;3145006;28;20053;-62
2022/08/31 03:41:40;;;;;;;16.25;11.73;;;;;;;22.42;57.44;99425.16;3144926;28;20049;-61
2022/08/31 03:43:12;;;;;;;16.15;10.68;;;;;;;22.40;57.63;99423.66;3144873;28;20044;-61
2022/08/31 03:44:43;;;;;;;21.50;11.48;;;;;;;22.39;57.90;99421.97;3144771;28;20051;-62
2022/08/31 03:46:16;;;;;;;22.88;10.75;;;;;;;22.40;57.50;99428.94;3145081;28;20461;-62
2022/08/31 03:47:47;;;;;;;19.33;10.73;;;;;;;22.38;57.53;99430.91;3144907;28;20441;-61
2022/08/31 03:49:19;;;;;;;18.50;10.98;;;;;;;22.35;57.54;99424.09;3144692;28;20052;-61
2022/08/31 03:50:51;;;;;;;20.33;10.48;;;;;;;22.33;57.59;99428.75;3144999;28;20056;-61
2022/08/31 03:52:21;;;;;;;17.63;10.00;;;;;;;22.31;57.35;99428.06;3145179;28;20418;-61
2022/08/31 03:53:53;;;;;;;20.02;11.05;;;;;;;22.25;57.80;99420.72;3145086;28;20109;-61
2022/08/31 03:55:27;;;;;;;17.88;11.02;;;;;;;22.27;57.47;99429.31;3145059;28;20060;-62
2022/08/31 03:57:00;;;;;;;21.70;10.80;;;;;;;22.21;57.87;99438.75;3144756;28;20101;-61
2022/08/31 03:58:32;;;;;;;18.90;10.68;;;;;;;22.18;58.23;99439.06;3145105;28;20056;-61
2022/08/31 04:00:06;;;;;;;18.33;11.43;;;;;;;22.18;57.96;99444.38;3144750;28;20145;-61
2022/08/31 04:01:38;;;;;;;17.67;10.65;;;;;;;22.17;58.09;99441.84;3144698;28;20049;-61
2022/08/31 04:03:10;;;;;;;19.52;10.63;;;;;;;22.11;58.24;99439.78;3144906;28;20056;-61
2022/08/31 04:04:42;;;;;;;18.48;11.75;;;;;;;22.12;58.35;99450.22;3144613;28;20406;-61
2022/08/31 04:06:14;;;;;;;17.88;11.63;;;;;;;22.09;58.44;99455.81;3144792;28;20452;-61
2022/08/31 04:07:45;;;;;;;20.88;11.73;;;;;;;22.11;58.42;99450.38;3144583;28;20056;-61
2022/08/31 04:09:17;;;;;;;23.48;12.00;;;;;;;22.07;58.50;99455.16;3144881;28;20055;-61
2022/08/31 04:10:50;;;;;;;17.27;10.88;;;;;;;22.07;58.22;99459.63;3144660;28;20044;-61
2022/08/31 04:12:23;;;;;;;21.17;11.27;;;;;;;22.04;58.48;99458.94;3144806;28;20434;-62
2022/08/31 04:13:55;;;;;;;18.55;11.50;;;;;;;22.08;58.45;99466.59;3144715;28;20843;-61
2022/08/31 04:15:27;;;;;;;23.35;11.43;;;;;;;22.10;58.45;99469.94;3144761;28;20064;-61
2022/08/31 04:16:59;;;;;;;20.40;11.68;;;;;;;22.13;58.44;99467.00;3146116;28;20047;-61
2022/08/31 04:18:30;;;;;;;19.37;11.60;;;;;;;22.15;58.22;99467.66;3145099;28;20083;-61
2022/08/31 04:20:02;;;;;;;23.30;11.90;;;;;;;22.16;57.93;99467.50;3138138;28;20303;-61
2022/08/31 04:21:33;;;;;;;27.20;11.93;;;;;;;22.17;58.09;99466.53;3145070;28;20048;-61
2022/08/31 04:23:05;;;;;;;17.73;10.80;;;;;;;22.20;57.73;99476.03;3145265;28;20059;-61
2022/08/31 04:24:37;;;;;;;21.98;11.13;;;;;;;22.22;57.89;99476.72;3144845;28;20083;-61
2022/08/31 04:26:15;;;;;;;18.60;11.27;;;;;;;22.23;57.94;99471.25;3144717;28;20747;-62
2022/08/31 04:27:49;;;;;;;20.08;11.65;;;;;;;22.25;57.84;99469.28;3144774;28;20129;-62
2022/08/31 04:29:22;;;;;;;19.20;10.98;;;;;;;22.27;57.98;99463.81;3144743;28;20432;-62
2022/08/31 04:30:54;;;;;;;23.73;12.00;;;;;;;22.30;57.70;99470.63;3144762;28;20051;-62
2022/08/31 04:32:26;;;;;;;20.83;12.85;;;;;;;22.33;57.48;99472.97;3144356;28;20435;-62
2022/08/31 04:33:59;;;;;;;19.92;11.20;;;;;;;22.36;57.32;99468.22;3144737;28;20052;-62
2022/08/31 04:35:30;;;;;;;21.02;11.30;;;;;;;22.38;57.70;99466.22;3144815;28;20056;-61
2022/08/31 04:37:02;;;;;;;17.88;10.75;;;;;;;22.38;57.32;99471.53;3144649;28;20048;-62
2022/08/31 04:38:35;;;;;;;19.77;11.82;;;;;;;22.38;57.37;99466.22;3144956;28;20052;-62
2022/08/31 04:40:18;;;;;;;19.88;10.90;;;;;;;22.40;57.59;99468.75;3144603;28;20528;-62
2022/08/31 04:41:50;;;;;;;;;;;;;;;22.35;57.54;99457.75;3145017;28;20109;-62
2022/08/31 04:43:23;;;;;;;22.05;11.30;;;;;;;22.34;57.63;99461.41;3143924;28;19920;-62
2022/08/31 04:44:55;;;;;;;;;;;;;;;22.30;57.46;99466.16;3144870;28;20101;-62
2022/08/31 04:46:28;;;;;;;20.17;11.35;;;;;;;22.21;57.74;99456.47;3144776;28;19924;-61
2022/08/31 04:47:59;;;;;;;20.40;11.68;;;;;;;22.24;58.00;99462.31;3144527;28;20052;-61
2022/08/31 04:49:31;;;;;;;26.20;12.52;;;;;;;22.27;57.62;99469.13;3144218;28;20052;-61
2022/08/31 04:51:04;;;;;;;21.75;11.68;;;;;;;22.24;58.25;99464.13;3144563;28;20048;-61
2022/08/31 04:52:36;;;;;;;20.27;12.15;;;;;;;22.23;58.15;99459.81;3144542;28;20057;-61
2022/08/31 04:54:11;;;;;;;25.42;12.23;;;;;;;22.23;58.00;99460.63;3144488;28;20437;-60
2022/08/31 04:55:43;;;;;;;38.35;12.73;;;;;;;22.21;58.41;99453.81;3144573;28;20440;-61
2022/08/31 04:57:15;;;;;;;22.90;11.93;;;;;;;22.21;58.17;99448.50;3144113;28;20052;-61
2022/08/31 04:58:51;;;;;;;22.40;12.10;;;;;;;22.21;57.97;99461.75;3144185;28;20049;-61
2022/08/31 05:00:23;;;;;;;25.67;12.63;;;;;;;22.22;58.48;99451.03;3144591;28;20436;-61
2022/08/31 05:01:55;;;;;;;27.10;13.18;;;;;;;22.22;58.02;99456.31;3139251;28;20552;-61
2022/08/31 05:03:26;;;;;;;19.80;12.95;;;;;;;22.23;58.10;99452.69;3144683;28;20052;-61
2022/08/31 05:04:59;;;;;;;26.58;11.55;;;;;;;22.24;58.22;99457.00;3143918;28;20268;-61
2022/08/31 05:06:32;;;;;;;26.33;11.80;;;;;;;22.28;58.05;99465.50;3144505;28;20135;-61
2022/08/31 05:08:04;;;;;;;21.38;12.75;;;;;;;22.30;57.83;99454.72;3143849;28;20550;-60
2022/08/31 05:09:36;;;;;;;21.98;12.50;;;;;;;22.30;58.19;99457.38;3144446;28;20517;-60
2022/08/31 05:11:10;;;;;;;24.88;11.68;;;;;;;22.36;57.69;99457.63;3144288;28;20544;-60
2022/08/31 05:12:43;;;;;;;22.95;12.73;;;;;;;22.42;57.47;99451.69;3147994;28;20047;-59
2022/08/31 05:14:16;;;;;;;23.60;12.57;;;;;;;22.46;57.47;99453.03;3145167;28;20154;-60
2022/08/31 05:15:48;;;;;;;31.15;12.45;;;;;;;22.52;57.63;99454.25;3146625;28;20063;-60
2022/08/31 05:17:20;;;;;;;21.50;11.05;;;;;;;22.57;57.48;99459.06;3146439;28;20469;-60
2022/08/31 05:18:52;;;;;;;17.02;11.20;;;;;;;22.63;57.15;99461.13;3147006;28;20060;-61
2022/08/31 05:20:25;;;;;;;23.80;11.13;;;;;;;22.60;57.09;99437.56;3149776;28;20044;-60
2022/08/31 05:21:56;;;;;;;18.50;11.15;;;;;;;22.75;56.67;99453.75;3146652;28;20044;-60
2022/08/31 05:23:27;;;;;;;22.20;10.95;;;;;;;22.78;56.62;99459.56;3146593;28;20052;-61
2022/08/31 05:24:59;;;;;;;24.92;11.85;;;;;;;22.84;56.04;99456.28;3146592;28;20084;-61
2022/08/31 05:26:35;;;;;;;17.65;10.70;;;;;;;22.90;56.21;99458.31;3146564;28;20068;-60
2022/08/31 05:28:06;;;;;;;23.55;10.48;;;;;;;22.91;55.97;99457.31;3146571;28;20249;-60
2022/08/31 05:29:40;;;;;;;16.63;10.70;;;;;;;22.98;55.59;99462.03;3146443;28;20113;-60
2022/08/31 05:31:12;;;;;;;25.65;9.57;;;;;;;23.00;55.68;99455.59;3146463;28;20445;-60
2022/08/31 05:32:44;;;;;;;23.80;10.90;;;;;;;23.06;55.48;99465.56;3146550;28;20049;-60
2022/08/31 05:34:17;;;;;;;21.23;10.43;;;;;;;23.13;55.32;99453.34;3146712;28;20056;-60
2022/08/31 05:35:47;;;;;;;26.88;10.88;;;;;;;23.20;55.06;99456.19;3146487;28;20822;-61
2022/08/31 05:37:19;;;;;;;23.05;10.65;;;;;;;23.26;55.04;99455.56;3146234;28;20044;-60
2022/08/31 05:38:53;;;;;;;27.48;10.23;;;;;;;23.35;54.54;99451.09;3146616;28;20052;-60
2022/08/31 05:40:24;;;;;;;26.25;10.77;;;;;;;23.46;54.31;99450.00;3146365;28;20527;-61
2022/08/31 05:41:56;;;;;;;21.95;10.50;;;;;;;23.56;54.20;99451.50;3146273;28;20048;-61
2022/08/31 05:43:29;;;;;;;28.13;10.82;;;;;;;23.64;54.25;99447.22;3146468;28;20052;-61
2022/08/31 05:45:02;;;;;;;23.27;10.02;;;;;;;23.72;53.73;99442.81;3146370;28;20049;-62
2022/08/31 05:46:34;;;;;;;15.15;10.13;;;;;;;23.84;53.44;99445.97;3146654;28;20053;-61
2022/08/31 05:48:06;;;;;;;27.23;10.55;;;;;;;23.95;53.50;99448.31;3146454;28;20053;-60
2022/08/31 05:49:38;;;;;;;16.38;8.68;;;;;;;24.03;52.95;99434.19;3145948;28;20075;-61
2022/08/31 05:51:13;;;;;;;108.65;61.53;;;;;;;24.14;52.52;99433.88;3146317;28;20057;-61
2022/08/31 05:52:45;;;;;;;24.48;15.40;;;;;;;24.27;52.83;99444.84;3145938;28;20040;-61
2022/08/31 05:54:16;;;;;;;17.92;10.45;;;;;;;24.37;52.31;99441.19;3146078;28;20045;-62
2022/08/31 05:55:47;;;;;;;21.08;9.57;;;;;;;24.45;52.14;99442.03;3146411;28;20064;-60
2022/08/31 05:57:19;;;;;;;16.85;9.90;;;;;;;24.51;51.73;99444.03;3146131;28;20048;-61
2022/08/31 05:58:51;;;;;;;17.55;9.18;;;;;;;24.57;51.19;99444.38;3145969;28;20076;-61
2022/08/31 06:00:24;;;;;;;17.02;8.88;;;;;;;24.64;50.70;99440.88;3145928;28;20151;-61
2022/08/31 06:01:57;;;;;;;15.02;8.23;;;;;;;24.75;50.42;99442.34;3146216;28;20138;-60
2022/08/31 06:03:29;;;;;;;18.90;9.35;;;;;;;24.82;50.26;99445.19;3145930;28;20048;-61
2022/08/31 06:05:01;;;;;;;16.25;8.65;;;;;;;24.91;50.41;99439.66;3145924;28;20425;-62
2022/08/31 06:06:33;;;;;;;16.13;8.45;;;;;;;24.97;49.93;99435.50;3146027;28;20052;-62
2022/08/31 06:08:05;;;;;;;15.98;8.70;;;;;;;25.04;49.74;99447.09;3145801;28;20188;-62
2022/08/31 06:09:37;;;;;;;14.40;8.63;;;;;;;25.09;49.64;99443.94;3152017;28;20445;-62
2022/08/31 06:11:18;;;;;;;14.85;8.57;;;;;;;25.17;48.94;99442.13;3146007;28;20060;-61
2022/08/31 06:12:49;;;;;;;15.82;8.35;;;;;;;25.25;48.64;99443.91;3145848;28;20064;-61
2022/08/31 06:14:22;;;;;;;13.45;8.48;;;;;;;25.35;48.41;99444.53;3146159;28;20143;-61
2022/08/31 06:15:58;;;;;;;19.73;7.78;;;;;;;25.42;48.02;99448.16;3146671;28;20127;-60
2022/08/31 06:17:29;;;;;;;13.93;8.25;;;;;;;25.46;48.17;99445.16;3145898;28;20048;-60
2022/08/31 06:19:03;;;;;;;14.13;7.72;;;;;;;25.49;47.42;99445.63;3145806;28;20052;-60
2022/08/31 06:20:36;;;;;;;13.02;7.85;;;;;;;25.54;47.65;99451.28;3146061;28;20036;-61
2022/08/31 06:22:08;;;;;;;;;;;;;;;25.57;47.73;99452.78;3146088;28;20059;-60
2022/08/31 06:23:41;;;;;;;11.40;7.80;;;;;;;25.59;47.15;99446.25;3145818;28;19927;-61
2022/08/31 06:25:18;;;;;;;15.20;7.95;;;;;;;25.63;47.33;99447.56;3145988;28;20545;-61
2022/08/31 06:26:54;;;;;;;19.20;7.43;;;;;;;25.67;46.85;99452.53;3145854;28;20063;-60
2022/08/31 06:28:29;;;;;;;15.75;7.32;;;;;;;25.70;46.69;99450.34;3145840;28;20040;-59
2022/08/31 06:30:02;;;;;;;19.40;8.98;;;;;;;25.76;46.68;99448.81;3145743;28;20445;-60
2022/08/31 06:31:37;;;;;;;12.20;7.75;;;;;;;25.82;46.57;99451.66;3145744;28;20100;-61
2022/08/31 06:33:10;;;;;;;16.23;7.63;;;;;;;25.87;46.33;99456.47;3141994;28;20056;-60
2022/08/31 06:34:42;;;;;;;16.13;7.30;;;;;;;25.93;46.43;99453.09;3145759;28;20060;-60
2022/08/31 06:36:17;;;;;;;14.50;8.00;;;;;;;26.01;46.10;99452.22;3145500;28;20109;-60
2022/08/31 06:37:49;;;;;;;17.95;7.65;;;;;;;26.05;46.15;99450.84;3145817;28;20105;-60
2022/08/31 06:39:21;;;;;;;11.40;7.45;;;;;;;26.12;45.61;99445.63;3145777;28;20050;-60
2022/08/31 06:40:52;;;;;;;13.20;7.95;;;;;;;26.21;45.85;99450.72;3145411;28;20048;-60
2022/08/31 06:42:24;;;;;;;14.07;7.78;;;;;;;26.30;45.63;99456.84;3145650;28;20387;-60
2022/08/31 06:43:58;;;;;;;11.00;6.70;;;;;;;26.38;45.17;99462.09;3145656;28;20055;-60
2022/08/31 06:45:30;;;;;;;17.75;7.90;;;;;;;26.48;44.43;99457.34;3145555;28;20549;-60
2022/08/31 06:47:03;;;;;;;14.02;7.03;;;;;;;26.59;44.31;99455.25;3145696;28;20121;-60
2022/08/31 06:48:36;;;;;;;13.32;6.63;;;;;;;26.68;43.81;99454.19;3144912;28;20052;-62
2022/08/31 06:50:11;;;;;;;11.13;6.97;;;;;;;26.77;43.68;99453.13;3145315;28;20048;-60
2022/08/31 06:51:43;;;;;;;9.57;6.05;;;;;;;26.85;43.45;99455.69;3145573;28;20044;-60
2022/08/31 06:53:15;;;;;;;13.55;6.20;;;;;;;26.94;43.47;99451.91;3145384;28;20063;-60
2022/08/31 06:54:47;;;;;;;12.18;6.75;;;;;;;27.03;43.20;99451.81;3145519;28;20049;-60
2022/08/31 06:56:20;;;;;;;13.88;6.88;;;;;;;27.11;42.89;99451.75;3144852;28;20059;-60
2022/08/31 06:57:52;;;;;;;12.20;6.22;;;;;;;27.21;42.75;99457.66;3145535;28;20044;-60
2022/08/31 06:59:24;;;;;;;12.32;6.60;;;;;;;27.32;42.70;99454.50;3145434;28;20453;-61
2022/08/31 07:00:57;;;;;;;10.70;6.13;;;;;;;27.42;42.05;99452.41;3145268;28;20048;-60
2022/08/31 07:02:30;;;;;;;11.25;6.35;;;;;;;27.51;41.84;99454.94;3145309;28;20049;-60
2022/08/31 07:04:03;;;;;;;;;;;;;;;27.53;41.65;99455.59;3145893;28;20109;-60
2022/08/31 07:05:37;;;;;;;16.73;7.60;;;;;;;27.58;41.44;99447.84;3148008;28;19927;-60
2022/08/31 07:07:10;;;;;;;12.30;6.72;;;;;;;27.68;41.09;99445.69;3145218;28;20133;-60
2022/08/31 07:08:43;;;;;;;10.60;6.30;;;;;;;27.73;40.53;99453.16;3145431;28;20059;-60
2022/08/31 07:10:16;;;;;;;10.45;6.43;;;;;;;27.78;40.44;99459.63;3142854;28;20419;-60
2022/08/31 07:11:50;;;;;;;12.60;6.90;;;;;;;27.83;40.76;99457.22;3143257;28;20043;-60
2022/08/31 07:13:22;;;;;;;16.60;6.60;;;;;;;27.94;40.74;99453.22;3145352;28;20055;-60